Airfield :
LOGIN :

Register | Disclaimer

   EN    FR    IT 

 










Legend :    VFR   Marginal VFR   IFR   Intensive IFR   Very Intensive IFR
Visi :
Ceiling :
>= 8 km
>= 3000ft
5 to 8 km
1000 to 3000 ft
1500m to 5 km
500 to 1000 ft
800 to 1500m
200 to 500 ft
< 800m
< 200 ft
Symbols :   Thunderstorms  Fog  Heavy snow  Heavy precipitations  Wind > 20 kt
SIGMETs :     Misc.  Thunderstorms  Icing  Turbulence  Mountain Waves  Volcanic Ashes







- Airport Elevation : 220 ft
- IATA code : CWL
- Download approach charts


EGFF - Cardiff Rhoose

CURRENT METAR :
  • 222020Z AUTO 01003KT 9999 NCD 14/12 Q1008

EXPIRED METARs :
  • 221950Z AUTO 02004KT 320V030 9999 NCD 15/12 Q1008
  • 221920Z 00000KT 9999 FEW020 FEW025TCU 16/11 Q1007
  • 221850Z AUTO VRB02KT 9999 NCD 16/11 Q1007
  • 221820Z AUTO 18005KT 140V210 9999 //////TCU 17/11 Q1007
  • 221750Z AUTO 17007KT 140V220 9999 FEW024/// //////CB 17/12 Q1007

TAF TAF EGFF
Valid from the 22 at 18:00 until the 23 at 18:00 UTC


221708Z 2218/2318 16008KT 9999 SCT025
BECMG 2221/2224 30010KT
TEMPO 2306/2317 7000 SHRA BKN009
PROB30
TEMPO 2310/2318 29015G25KT
ATIS : +44 1446 729 319
No reported NOTAMs for that airfield.



MET'MAP, your aeronautical weather chart ! - Copyright ORBIFLY December 2007 - Disclaimer

ORBIFLY MET'MAP TEAM :

Programming & Development : Alexandra Zaïnal
Concept & Development : Baudouin d'Aumeries
Co-Development & Prog : Marc-Olivier Méhu
Technical & hardware support : Manuel Goepfert

Contact : metmap@orbifly.com




SOURCES & CREDITS :

   NOAA